createdAt,value
2019-04-22T00:00:49.373Z,24.50
2019-04-22T00:03:19.910Z,24.50
2019-04-22T00:06:14.583Z,24.50
2019-04-22T00:08:49.262Z,24.50
2019-04-22T00:11:25.592Z,24.40
2019-04-22T00:14:02.649Z,24.50
2019-04-22T00:16:27.809Z,24.40
2019-04-22T00:19:11.371Z,24.50
2019-04-22T00:21:25.489Z,24.50
2019-04-22T00:23:59.567Z,24.50
2019-04-22T00:26:29.002Z,24.40
2019-04-22T00:29:21.374Z,24.40
2019-04-22T00:31:40.557Z,24.40
2019-04-22T00:34:11.164Z,24.40
2019-04-22T00:36:52.359Z,24.40
2019-04-22T00:39:21.318Z,24.40
2019-04-22T00:41:51.540Z,24.40
2019-04-22T00:44:25.639Z,24.40
2019-04-22T00:47:01.119Z,24.40
2019-04-22T00:52:04.339Z,24.40
2019-04-22T00:54:28.453Z,24.30
2019-04-22T00:57:01.233Z,24.40
2019-04-22T00:59:29.886Z,24.40
2019-04-22T01:02:10.228Z,24.40
2019-04-22T01:04:40.931Z,24.40
2019-04-22T01:07:03.615Z,24.40
2019-04-22T01:09:49.778Z,24.30
2019-04-22T01:12:16.629Z,24.30
2019-04-22T01:14:43.033Z,24.30
2019-04-22T01:17:16.523Z,24.30
2019-04-22T01:19:52.345Z,24.30
2019-04-22T01:22:17.586Z,24.30
2019-04-22T01:24:46.438Z,24.30
2019-04-22T01:27:16.182Z,24.30
2019-04-22T01:29:46.788Z,24.30
2019-04-22T01:32:13.204Z,24.30
2019-04-22T01:34:52.612Z,24.30
2019-04-22T01:37:29.091Z,24.30
2019-04-22T01:40:06.520Z,24.30
2019-04-22T01:42:39.713Z,24.20
2019-04-22T01:45:14.922Z,24.20
2019-04-22T01:47:43.728Z,24.20
2019-04-22T01:50:16.420Z,24.20
2019-04-22T01:52:52.175Z,24.20
2019-04-22T01:55:27.439Z,24.20
2019-04-22T01:57:51.480Z,24.20
2019-04-22T02:00:11.271Z,24.20
2019-04-22T02:03:12.480Z,24.20
2019-04-22T02:05:22.829Z,24.20
2019-04-22T02:07:59.473Z,24.20
2019-04-22T02:10:34.680Z,24.20
2019-04-22T02:13:00.154Z,24.20
2019-04-22T02:15:36.044Z,24.20
2019-04-22T02:18:10.648Z,24.20
2019-04-22T02:20:40.701Z,24.20
2019-04-22T02:23:40.392Z,24.10
2019-04-22T02:25:57.988Z,24.10
2019-04-22T02:28:35.047Z,24.10
2019-04-22T02:36:19.798Z,24.10
2019-04-22T02:41:23.277Z,24.10
2019-04-22T02:51:16.468Z,24.10
2019-04-22T03:01:39.651Z,24.10
2019-04-22T03:06:30.391Z,24.00
2019-04-22T03:11:45.774Z,24.00
2019-04-22T03:14:03.303Z,24.00
2019-04-22T03:19:26.022Z,24.00
2019-04-22T03:21:36.724Z,24.00
2019-04-22T03:54:45.707Z,24.00
2019-04-22T03:57:38.487Z,23.90
2019-04-22T03:59:59.338Z,23.90
2019-04-22T04:02:21.590Z,23.90
2019-04-22T04:04:45.216Z,23.90
2019-04-22T04:12:23.554Z,23.90
2019-04-22T04:15:12.343Z,23.90
2019-04-22T04:17:37.844Z,23.90
2019-04-22T04:22:48.607Z,23.90
2019-04-22T04:25:19.231Z,23.90
2019-04-22T04:30:14.843Z,23.90
2019-04-22T04:35:32.864Z,23.90
2019-04-22T04:37:52.767Z,23.90
2019-04-22T04:40:20.681Z,23.90
2019-04-22T04:45:36.653Z,23.90
2019-04-22T04:50:17.717Z,23.90
2019-04-22T04:53:08.364Z,23.90
2019-04-22T04:55:28.725Z,23.90
2019-04-22T05:03:08.182Z,23.90
2019-04-22T05:10:53.489Z,23.90
2019-04-22T05:13:06.730Z,23.90
2019-04-22T05:18:19.011Z,23.80
2019-04-22T05:20:50.611Z,23.80
2019-04-22T05:23:11.987Z,23.90
2019-04-22T05:25:32.006Z,23.90
2019-04-22T05:28:11.709Z,23.80
2019-04-22T05:30:39.539Z,23.90
2019-04-22T05:33:16.367Z,23.90
2019-04-22T05:35:46.251Z,23.90
2019-04-22T05:38:29.436Z,23.90
2019-04-22T05:40:54.242Z,23.90
2019-04-22T05:43:22.724Z,23.90
2019-04-22T05:45:54.476Z,23.90
2019-04-22T05:48:34.212Z,23.90
2019-04-22T05:50:56.476Z,23.90
2019-04-22T05:53:32.524Z,23.90
2019-04-22T05:56:09.326Z,23.90
2019-04-22T05:58:41.537Z,23.90
2019-04-22T06:03:46.248Z,23.90
2019-04-22T06:06:15.089Z,23.90
2019-04-22T06:08:45.454Z,23.90
2019-04-22T06:13:46.616Z,24.00
2019-04-22T06:16:26.602Z,24.00
2019-04-22T06:19:03.140Z,23.90
2019-04-22T06:21:32.680Z,24.00
2019-04-22T06:24:10.582Z,24.00
2019-04-22T06:26:45.821Z,24.00
2019-04-22T06:29:09.354Z,24.00
2019-04-22T06:32:06.947Z,24.00
2019-04-22T06:34:17.879Z,24.00
2019-04-22T06:36:45.143Z,24.10
2019-04-22T06:39:25.966Z,24.10
2019-04-22T06:41:47.738Z,24.20
2019-04-22T06:46:52.307Z,24.40
2019-04-22T06:49:33.290Z,24.50
2019-04-22T06:52:04.195Z,24.60
2019-04-22T06:54:27.910Z,24.70
2019-04-22T06:56:59.683Z,24.90
2019-04-22T06:59:34.439Z,25.00
2019-04-22T07:02:02.211Z,25.10
2019-04-22T07:04:39.906Z,25.10
2019-04-22T07:07:06.711Z,25.20
2019-04-22T07:09:41.392Z,25.30
2019-04-22T07:12:11.555Z,25.40
2019-04-22T07:14:47.033Z,25.50
2019-04-22T07:19:42.243Z,25.70
2019-04-22T07:22:28.124Z,25.70
2019-04-22T07:24:47.398Z,25.80
2019-04-22T07:27:18.793Z,25.90
2019-04-22T07:29:55.341Z,25.90
2019-04-22T07:32:29.383Z,26.00
2019-04-22T07:34:56.933Z,26.00
2019-04-22T07:37:31.703Z,26.10
2019-04-22T07:39:54.291Z,26.20
2019-04-22T07:42:31.089Z,26.20
2019-04-22T07:47:38.337Z,26.30
2019-04-22T07:50:05.478Z,26.40
2019-04-22T07:52:35.289Z,26.40
2019-04-22T07:55:01.657Z,26.40
2019-04-22T07:57:39.261Z,26.50
2019-04-22T08:00:20.700Z,26.50
2019-04-22T08:02:48.323Z,26.60
2019-04-22T08:05:13.633Z,26.60
2019-04-22T08:08:10.983Z,26.60
2019-04-22T08:10:23.858Z,26.60
2019-04-22T08:12:55.451Z,26.70
2019-04-22T08:15:20.023Z,26.70
2019-04-22T08:20:30.782Z,26.70
2019-04-22T08:23:02.841Z,26.70
2019-04-22T08:25:26.507Z,26.80
2019-04-22T08:28:03.279Z,26.80
2019-04-22T08:30:35.473Z,26.80
2019-04-22T08:33:09.634Z,26.80
2019-04-22T08:35:52.417Z,26.80
2019-04-22T08:38:20.688Z,26.80
2019-04-22T08:40:47.152Z,26.80
2019-04-22T08:43:20.956Z,26.80
2019-04-22T08:48:15.102Z,26.80
2019-04-22T08:50:55.731Z,26.80
2019-04-22T08:53:23.675Z,26.80
2019-04-22T08:56:04.918Z,26.80
2019-04-22T08:58:43.491Z,26.80
2019-04-22T09:00:57.846Z,26.70
2019-04-22T09:03:23.963Z,26.80
2019-04-22T09:06:06.534Z,26.70
2019-04-22T09:08:34.396Z,26.70
2019-04-22T09:11:03.640Z,26.70
2019-04-22T09:13:35.468Z,26.70
2019-04-22T09:16:12.396Z,26.70
2019-04-22T09:18:40.983Z,26.70
2019-04-22T09:23:44.439Z,26.60
2019-04-22T09:26:19.879Z,26.60
2019-04-22T09:28:50.943Z,26.60
2019-04-22T09:31:23.523Z,26.60
2019-04-22T09:33:53.140Z,26.60
2019-04-22T09:39:00.861Z,26.60
2019-04-22T09:41:42.981Z,26.50
2019-04-22T09:44:02.918Z,26.60
2019-04-22T09:46:42.592Z,26.50
2019-04-22T09:49:12.376Z,26.50
2019-04-22T09:51:58.439Z,26.50
2019-04-22T09:54:14.941Z,26.50
2019-04-22T09:56:44.588Z,26.50
2019-04-22T09:59:13.847Z,26.50
2019-04-22T10:01:59.380Z,26.50
2019-04-22T10:04:14.150Z,26.50
2019-04-22T10:06:44.354Z,26.50
2019-04-22T10:12:09.885Z,26.40
2019-04-22T10:14:28.995Z,26.40
2019-04-22T10:16:54.981Z,26.40
2019-04-22T10:19:34.999Z,26.40
2019-04-22T10:21:57.199Z,26.40
2019-04-22T10:24:36.889Z,26.40
2019-04-22T10:27:02.124Z,26.40
2019-04-22T10:29:43.928Z,26.30
2019-04-22T10:32:06.826Z,26.30
2019-04-22T10:34:26.910Z,26.30
2019-04-22T10:36:52.669Z,26.30
2019-04-22T10:39:18.398Z,26.30
2019-04-22T10:41:50.495Z,26.30
2019-04-22T10:44:21.316Z,26.30
2019-04-22T10:46:51.970Z,26.30
2019-04-22T10:49:22.379Z,26.30
2019-04-22T10:51:52.868Z,26.20
2019-04-22T10:54:23.364Z,26.30
2019-04-22T10:56:54.887Z,26.30
2019-04-22T10:59:24.878Z,26.30
2019-04-22T11:01:55.012Z,26.30
2019-04-22T11:04:26.059Z,26.20
2019-04-22T11:07:01.981Z,26.20
2019-04-22T11:09:29.060Z,26.20
2019-04-22T11:12:06.462Z,26.20
2019-04-22T11:14:30.831Z,26.20
2019-04-22T11:17:03.336Z,26.20
2019-04-22T11:19:32.318Z,26.20
2019-04-22T11:22:09.615Z,26.20
2019-04-22T11:24:34.699Z,26.20
2019-04-22T11:27:05.308Z,26.20
2019-04-22T11:29:35.415Z,26.20
2019-04-22T11:32:06.770Z,26.20
2019-04-22T11:34:37.610Z,26.20
2019-04-22T11:37:07.748Z,26.20
2019-04-22T11:39:38.690Z,26.20
2019-04-22T11:42:10.011Z,26.20
2019-04-22T11:44:41.175Z,26.20
2019-04-22T11:47:11.775Z,26.20
2019-04-22T11:49:41.957Z,26.20
2019-04-22T11:52:14.687Z,26.20
2019-04-22T11:54:43.848Z,26.20
2019-04-22T11:57:15.236Z,26.20
2019-04-22T11:59:45.243Z,26.20
2019-04-22T12:02:18.065Z,26.20
2019-04-22T12:04:49.649Z,26.20
2019-04-22T12:07:21.197Z,26.20
2019-04-22T12:09:51.534Z,26.20
2019-04-22T12:12:21.651Z,26.20
2019-04-22T12:14:52.326Z,26.20
2019-04-22T12:17:22.471Z,26.20
2019-04-22T12:19:52.654Z,26.20
2019-04-22T12:22:23.001Z,26.20
2019-04-22T12:24:54.143Z,26.20
2019-04-22T12:27:28.016Z,26.20
2019-04-22T12:29:56.794Z,26.20
2019-04-22T12:32:29.724Z,26.20
2019-04-22T12:35:00.022Z,26.20
2019-04-22T12:37:38.042Z,26.20
2019-04-22T12:40:02.666Z,26.30
2019-04-22T12:42:33.285Z,26.30
2019-04-22T12:45:04.319Z,26.30
2019-04-22T12:47:35.751Z,26.30
2019-04-22T12:50:14.809Z,26.30
2019-04-22T12:52:47.890Z,26.30
2019-04-22T12:55:12.185Z,26.30
2019-04-22T12:57:42.810Z,26.20
2019-04-22T13:00:13.770Z,26.20
2019-04-22T13:02:44.910Z,26.30
2019-04-22T13:05:16.273Z,26.30
2019-04-22T13:07:47.477Z,26.30
2019-04-22T13:10:20.001Z,26.30
2019-04-22T13:12:50.959Z,26.30
2019-04-22T13:15:22.388Z,26.30
2019-04-22T13:18:04.583Z,26.30
2019-04-22T13:20:26.066Z,26.30
2019-04-22T13:22:57.017Z,26.30
2019-04-22T13:25:29.966Z,26.30
2019-04-22T13:27:58.582Z,26.40
2019-04-22T13:30:30.367Z,26.40
2019-04-22T13:33:02.941Z,26.40
2019-04-22T13:35:33.922Z,26.40
2019-04-22T13:38:04.781Z,26.40
2019-04-22T13:40:35.290Z,26.40
2019-04-22T13:43:07.010Z,26.40
2019-04-22T13:45:38.572Z,26.40
2019-04-22T13:48:29.656Z,26.40
2019-04-22T13:51:13.262Z,26.40
2019-04-22T13:56:07.676Z,26.40
2019-04-22T13:58:34.281Z,26.40
2019-04-22T14:00:49.270Z,26.40
2019-04-22T14:03:39.318Z,26.40
2019-04-22T14:06:10.827Z,26.40
2019-04-22T14:08:40.967Z,26.40
2019-04-22T14:11:23.344Z,26.40
2019-04-22T14:13:43.794Z,26.40
2019-04-22T14:16:15.331Z,26.40
2019-04-22T14:18:46.141Z,26.40
2019-04-22T14:21:16.850Z,26.40
2019-04-22T14:23:46.854Z,26.40
2019-04-22T14:26:17.462Z,26.40
2019-04-22T14:28:48.059Z,26.40
2019-04-22T14:31:18.308Z,26.40
2019-04-22T14:33:53.656Z,26.40
2019-04-22T14:36:21.521Z,26.40
2019-04-22T14:38:52.312Z,26.40
2019-04-22T14:41:43.560Z,26.40
2019-04-22T14:44:56.657Z,26.40
2019-04-22T14:46:56.946Z,26.40
2019-04-22T14:49:24.283Z,26.40
2019-04-22T14:51:49.906Z,26.40
2019-04-22T14:54:19.457Z,26.40
2019-04-22T14:56:34.141Z,26.40
2019-04-22T14:59:05.119Z,26.40
2019-04-22T15:01:38.380Z,26.40
2019-04-22T15:04:06.786Z,26.40
2019-04-22T15:06:37.943Z,26.40
2019-04-22T15:09:10.125Z,26.40
2019-04-22T15:11:50.725Z,26.40
2019-04-22T15:14:12.389Z,26.30
2019-04-22T15:17:13.224Z,26.30
2019-04-22T15:20:14.205Z,26.30
2019-04-22T15:22:44.273Z,26.30
2019-04-22T15:25:14.782Z,26.30
2019-04-22T15:27:45.894Z,26.30
2019-04-22T15:30:17.197Z,26.30
2019-04-22T15:32:49.355Z,26.30
2019-04-22T15:35:19.574Z,26.30
2019-04-22T15:37:51.347Z,26.30
2019-04-22T15:40:22.575Z,26.30
2019-04-22T15:42:55.041Z,26.30
2019-04-22T15:45:25.901Z,26.30
2019-04-22T15:47:56.031Z,26.30
2019-04-22T15:50:26.708Z,26.30
2019-04-22T15:52:59.018Z,26.30
2019-04-22T15:55:29.143Z,26.30
2019-04-22T15:58:01.646Z,26.30
2019-04-22T16:00:41.484Z,26.30
2019-04-22T16:03:08.043Z,26.30
2019-04-22T16:05:36.256Z,26.30
2019-04-22T16:08:06.720Z,26.30
2019-04-22T16:10:37.923Z,26.30
2019-04-22T16:13:15.081Z,26.30
2019-04-22T16:15:40.423Z,26.30
2019-04-22T16:18:12.547Z,26.30
2019-04-22T16:20:41.930Z,26.30
2019-04-22T16:23:27.887Z,26.30
2019-04-22T16:26:01.056Z,26.30
2019-04-22T16:28:31.315Z,26.30
2019-04-22T16:31:01.505Z,26.30
2019-04-22T16:33:36.463Z,26.30
2019-04-22T16:36:06.867Z,26.30
2019-04-22T16:38:37.373Z,26.30
2019-04-22T16:41:08.572Z,26.30
2019-04-22T16:43:40.641Z,26.30
2019-04-22T16:46:11.722Z,26.30
2019-04-22T16:48:41.678Z,26.30
2019-04-22T16:51:11.875Z,26.30
2019-04-22T16:53:43.206Z,26.20
2019-04-22T16:56:13.367Z,26.20
2019-04-22T16:58:43.209Z,26.20
2019-04-22T17:01:36.800Z,26.20
2019-04-22T17:04:20.800Z,26.20
2019-04-22T17:06:50.815Z,26.20
2019-04-22T17:09:21.775Z,26.20
2019-04-22T17:11:52.176Z,26.30
2019-04-22T17:14:29.599Z,26.30
2019-04-22T17:16:54.759Z,26.20
2019-04-22T17:19:24.703Z,26.30
2019-04-22T17:21:55.298Z,26.30
2019-04-22T17:24:25.750Z,26.30
2019-04-22T17:26:56.703Z,26.30
2019-04-22T17:29:28.284Z,26.30
2019-04-22T17:32:04.313Z,26.30
2019-04-22T17:34:31.857Z,26.30
2019-04-22T17:37:04.067Z,26.30
2019-04-22T17:39:46.828Z,26.30
2019-04-22T17:42:27.814Z,26.20
2019-04-22T17:45:17.545Z,26.20
2019-04-22T17:48:12.781Z,26.20
2019-04-22T17:50:57.905Z,26.20
2019-04-22T17:53:27.958Z,26.20
2019-04-22T17:55:55.815Z,26.20
2019-04-22T17:58:25.768Z,26.20
2019-04-22T18:00:56.686Z,26.20
2019-04-22T18:03:20.205Z,26.10
2019-04-22T18:05:44.953Z,26.10
2019-04-22T18:08:31.552Z,26.10
2019-04-22T18:11:06.325Z,26.10
2019-04-22T18:13:41.061Z,26.10
2019-04-22T18:16:09.827Z,26.10
2019-04-22T18:18:37.112Z,26.10
2019-04-22T18:21:05.022Z,26.10
2019-04-22T18:23:24.889Z,26.10
2019-04-22T18:26:05.746Z,26.00
2019-04-22T18:28:44.257Z,26.00
2019-04-22T18:31:12.031Z,26.00
2019-04-22T18:33:46.035Z,26.00
2019-04-22T18:36:15.103Z,26.00
2019-04-22T18:38:56.179Z,26.00
2019-04-22T18:41:18.199Z,26.00
2019-04-22T18:43:54.764Z,25.90
2019-04-22T18:46:26.331Z,25.90
2019-04-22T18:48:55.763Z,25.90
2019-04-22T18:51:42.518Z,25.90
2019-04-22T18:54:30.910Z,25.90
2019-04-22T18:56:56.085Z,25.90
2019-04-22T18:59:21.577Z,25.90
2019-04-22T19:01:46.033Z,25.90
2019-04-22T19:04:24.758Z,25.90
2019-04-22T19:07:08.129Z,25.80
2019-04-22T19:09:51.651Z,25.80
2019-04-22T19:12:22.301Z,25.80
2019-04-22T19:14:52.925Z,25.80
2019-04-22T19:17:27.203Z,25.80
2019-04-22T19:19:49.795Z,25.80
2019-04-22T19:22:27.663Z,25.70
2019-04-22T19:24:51.067Z,25.70
2019-04-22T19:27:20.134Z,25.70
2019-04-22T19:29:57.333Z,25.70
2019-04-22T19:32:29.601Z,25.70
2019-04-22T19:34:55.558Z,25.70
2019-04-22T19:37:29.866Z,25.70
2019-04-22T19:40:11.635Z,25.70
2019-04-22T19:45:09.085Z,25.60
2019-04-22T19:47:41.992Z,25.60
2019-04-22T19:50:27.958Z,25.60
2019-04-22T19:52:40.969Z,25.60
2019-04-22T19:55:12.311Z,25.60
2019-04-22T19:57:43.354Z,25.50
2019-04-22T20:00:14.799Z,25.50
2019-04-22T20:03:20.250Z,25.50
2019-04-22T20:05:56.254Z,25.50
2019-04-22T20:08:23.371Z,25.50
2019-04-22T20:10:56.012Z,25.50
2019-04-22T20:13:31.081Z,25.50
2019-04-22T20:15:48.142Z,25.50
2019-04-22T20:18:34.525Z,25.50
2019-04-22T20:21:04.418Z,25.50
2019-04-22T20:23:25.570Z,25.50
2019-04-22T20:25:59.000Z,25.50
2019-04-22T20:28:37.495Z,25.50
2019-04-22T20:31:03.299Z,25.50
2019-04-22T20:33:48.046Z,25.50
2019-04-22T20:36:25.263Z,25.40
2019-04-22T20:38:40.285Z,25.50
2019-04-22T20:41:09.058Z,25.40
2019-04-22T20:43:48.122Z,25.50
2019-04-22T20:46:16.219Z,25.40
2019-04-22T20:48:48.441Z,25.40
2019-04-22T20:51:24.281Z,25.40
2019-04-22T20:54:01.089Z,25.40
2019-04-22T20:56:18.861Z,25.40
2019-04-22T20:58:56.223Z,25.40
2019-04-22T21:01:24.383Z,25.40
2019-04-22T21:03:46.942Z,25.40
2019-04-22T21:06:27.589Z,25.40
2019-04-22T21:09:01.091Z,25.30
2019-04-22T21:11:30.140Z,25.30
2019-04-22T21:14:01.131Z,25.30
2019-04-22T21:16:37.892Z,25.30
2019-04-22T21:19:19.597Z,25.30
2019-04-22T21:21:45.036Z,25.40
2019-04-22T21:24:09.229Z,25.30
2019-04-22T21:26:45.383Z,25.30
2019-04-22T21:29:12.679Z,25.30
2019-04-22T21:31:50.298Z,25.30
2019-04-22T21:34:19.645Z,25.30
2019-04-22T21:36:56.118Z,25.30
2019-04-22T21:39:23.371Z,25.30
2019-04-22T21:41:52.824Z,25.30
2019-04-22T21:44:25.992Z,25.30
2019-04-22T21:47:07.204Z,25.30
2019-04-22T21:49:35.896Z,25.30
2019-04-22T21:52:07.975Z,25.20
2019-04-22T21:54:45.482Z,25.20
2019-04-22T21:57:19.237Z,25.20
2019-04-22T21:59:46.199Z,25.20
2019-04-22T22:02:25.785Z,25.20
2019-04-22T22:04:47.387Z,25.20
2019-04-22T22:07:09.735Z,25.20
2019-04-22T22:09:56.387Z,25.20
2019-04-22T22:12:26.462Z,25.10
2019-04-22T22:14:55.817Z,25.10
2019-04-22T22:17:27.654Z,25.10
2019-04-22T22:19:57.843Z,25.10
2019-04-22T22:22:50.410Z,25.10
2019-04-22T22:25:08.844Z,25.10
2019-04-22T22:27:37.197Z,25.10
2019-04-22T22:30:33.717Z,25.10
2019-04-22T22:32:40.267Z,25.10
2019-04-22T22:35:16.862Z,25.10
2019-04-22T22:37:44.629Z,25.10
2019-04-22T22:40:06.558Z,25.00
2019-04-22T22:42:36.408Z,25.00
2019-04-22T22:45:07.778Z,25.00
2019-04-22T22:47:54.054Z,25.00
2019-04-22T22:50:22.748Z,25.00
2019-04-22T22:53:07.854Z,25.00
2019-04-22T22:55:31.389Z,25.00
2019-04-22T22:58:06.125Z,25.00
2019-04-22T23:00:31.306Z,25.00
2019-04-22T23:05:48.279Z,25.00
2019-04-22T23:08:17.109Z,25.00
2019-04-22T23:10:52.193Z,24.90
2019-04-22T23:13:18.619Z,25.00
2019-04-22T23:15:39.521Z,24.90
2019-04-22T23:17:56.250Z,24.90
2019-04-22T23:20:33.424Z,24.90
2019-04-22T23:23:36.023Z,24.90
2019-04-22T23:25:55.093Z,24.90
2019-04-22T23:28:37.315Z,24.90
2019-04-22T23:31:29.267Z,24.90
2019-04-22T23:34:06.756Z,24.90
2019-04-22T23:36:55.939Z,24.80
2019-04-22T23:39:30.944Z,24.80
2019-04-22T23:42:06.424Z,24.80
2019-04-22T23:44:32.197Z,24.80
2019-04-22T23:47:08.526Z,24.80
2019-04-22T23:49:35.205Z,24.80
2019-04-22T23:52:20.813Z,24.80
2019-04-22T23:54:58.867Z,24.80
2019-04-22T23:57:30.891Z,24.80
